Time;durP1;ratioP1;P1;durP2;ratioP2;P2;SDS_P1;SDS_P2;PMS_P1;PMS_P2;Temp;Humidity;BMP_temperature;BMP_pressure;BME280_temperature;BME280_humidity;BME280_pressure;Samples;Min_cycle;Max_cycle;Signal;HPM_P1;HPM_P2
2022/09/18 00:02:03;;;;;;;0.32;0.25;;;21.30;56.50;;;;;;6215366;28;20151;-71
2022/09/18 00:05:04;;;;;;;0.22;0.20;;;21.30;56.40;;;;;;6215552;28;20034;-71
2022/09/18 00:08:06;;;;;;;1.17;0.28;;;21.30;56.60;;;;;;6214985;28;20022;-72
2022/09/18 00:11:08;;;;;;;0.40;0.30;;;21.30;56.60;;;;;;6215490;28;20018;-71
2022/09/18 00:14:11;;;;;;;0.32;0.30;;;21.30;56.40;;;;;;6215397;28;20026;-71
2022/09/18 00:17:12;;;;;;;0.70;0.30;;;21.30;56.50;;;;;;6221563;28;20491;-72
2022/09/18 00:20:13;;;;;;;0.47;0.30;;;21.30;56.60;;;;;;6214474;28;20360;-71
2022/09/18 00:23:14;;;;;;;0.30;0.30;;;21.30;56.40;;;;;;6214978;28;20033;-71
2022/09/18 00:26:17;;;;;;;0.40;0.30;;;21.30;56.60;;;;;;6220679;28;20383;-72
2022/09/18 00:29:18;;;;;;;0.10;0.10;;;21.30;56.50;;;;;;6220275;28;20371;-72
2022/09/18 00:32:18;;;;;;;0.20;0.20;;;21.30;56.50;;;;;;6214626;28;20022;-72
2022/09/18 00:35:19;;;;;;;0.28;0.28;;;21.30;56.60;;;;;;6215061;28;20050;-71
2022/09/18 00:38:19;;;;;;;0.93;0.20;;;21.30;56.40;;;;;;6214623;28;20022;-71
2022/09/18 00:41:23;;;;;;;0.50;0.20;;;21.30;56.60;;;;;;6214864;28;20440;-72
2022/09/18 00:44:33;;;;;;;0.15;0.15;;;21.30;57.20;;;;;;6214429;28;20072;-72
2022/09/18 00:47:44;;;;;;;1.63;0.35;;;21.30;56.50;;;;;;6214454;28;20028;-73
2022/09/18 00:50:45;;;;;;;0.35;0.30;;;21.30;56.60;;;;;;6214667;28;20022;-72
2022/09/18 00:53:54;;;;;;;0.93;0.30;;;21.30;56.50;;;;;;6214343;28;20029;-72
2022/09/18 00:57:00;;;;;;;0.57;0.28;;;21.30;56.50;;;;;;6218618;28;20030;-71
2022/09/18 01:00:05;;;;;;;0.28;0.20;;;21.30;56.40;;;;;;6216826;28;20411;-71
2022/09/18 01:03:05;;;;;;;0.28;0.20;;;21.30;56.40;;;;;;6218527;28;20044;-72
2022/09/18 01:06:09;;;;;;;0.45;0.22;;;21.30;56.60;;;;;;6223452;28;20038;-71
2022/09/18 01:09:17;;;;;;;0.32;0.30;;;21.30;56.50;;;;;;6218923;28;20066;-71
2022/09/18 01:12:37;;;;;;;0.20;0.20;;;21.30;56.40;;;;;;6217245;28;20136;-71
2022/09/18 01:15:54;;;;;;;0.70;0.35;;;21.30;56.30;;;;;;6218602;28;20380;-71
2022/09/18 01:19:01;;;;;;;0.15;0.15;;;21.30;56.50;;;;;;6218500;28;20119;-71
2022/09/18 01:22:30;;;;;;;0.20;0.20;;;21.30;56.40;;;;;;6217322;28;20108;-72
2022/09/18 01:25:56;;;;;;;0.22;0.10;;;21.30;56.50;;;;;;6218542;28;20038;-71
2022/09/18 01:29:06;;;;;;;0.20;0.20;;;21.30;56.50;;;;;;6220329;28;20037;-72
2022/09/18 01:32:19;;;;;;;0.20;0.10;;;21.30;56.60;;;;;;6218216;28;20018;-71
2022/09/18 01:35:38;;;;;;;0.65;0.20;;;21.30;56.60;;;;;;6218309;28;20101;-71
2022/09/18 01:38:56;;;;;;;0.20;0.20;;;21.30;56.60;;;;;;6217989;28;20018;-71
2022/09/18 01:41:57;;;;;;;0.75;0.15;;;21.30;56.70;;;;;;6198376;28;20080;-71
2022/09/18 01:45:03;;;;;;;0.20;0.20;;;21.30;56.50;;;;;;6202960;28;20165;-71
2022/09/18 01:48:06;;;;;;;0.35;0.25;;;21.30;56.50;;;;;;6218226;28;20030;-71
2022/09/18 01:51:25;;;;;;;0.20;0.20;;;21.30;56.50;;;;;;6217917;28;20133;-71
2022/09/18 01:54:31;;;;;;;0.25;0.20;;;21.30;56.50;;;;;;6217895;28;20337;-71
2022/09/18 01:57:42;;;;;;;0.75;0.20;;;21.30;56.50;;;;;;6217466;28;20034;-72
2022/09/18 02:00:48;;;;;;;0.13;0.13;;;21.30;56.40;;;;;;6218599;28;20071;-72
2022/09/18 02:03:59;;;;;;;0.40;0.20;;;21.30;56.50;;;;;;6217937;28;20042;-72
2022/09/18 02:07:25;;;;;;;0.15;0.10;;;21.30;56.60;;;;;;6223654;28;20543;-71
2022/09/18 02:10:28;;;;;;;;;;;21.30;56.50;;;;;;6222962;28;20063;-71
2022/09/18 02:13:43;;;;;;;0.38;0.30;;;21.30;56.50;;;;;;6217803;28;20013;-71
2022/09/18 02:16:47;;;;;;;0.20;0.20;;;21.30;56.60;;;;;;6217880;28;20032;-72
2022/09/18 02:19:55;;;;;;;0.17;0.17;;;21.30;56.40;;;;;;6218036;28;20086;-71
2022/09/18 02:23:00;;;;;;;0.10;0.10;;;21.30;56.50;;;;;;6217135;28;20034;-72
2022/09/18 02:26:03;;;;;;;0.37;0.20;;;21.30;56.40;;;;;;6217260;28;20030;-72
2022/09/18 02:29:06;;;;;;;0.38;0.28;;;21.30;56.50;;;;;;6217191;28;20751;-71
2022/09/18 02:32:07;;;;;;;0.20;0.20;;;21.30;56.50;;;;;;6216972;28;20022;-71
2022/09/18 02:35:09;;;;;;;0.40;0.22;;;21.30;56.40;;;;;;6222963;28;20030;-71
2022/09/18 02:38:23;;;;;;;0.10;0.10;;;21.30;56.50;;;;;;6216952;28;20026;-71
2022/09/18 02:41:50;;;;;;;0.10;0.10;;;21.30;56.50;;;;;;6216923;28;20541;-71
2022/09/18 02:45:08;;;;;;;0.15;0.10;;;21.30;56.50;;;;;;6221140;28;20068;-71
2022/09/18 02:48:21;;;;;;;0.45;0.10;;;21.30;56.60;;;;;;6195384;28;20022;-71
2022/09/18 02:51:42;;;;;;;0.25;0.20;;;21.30;56.50;;;;;;6201390;28;20022;-72
2022/09/18 02:55:06;;;;;;;6.30;0.30;;;21.30;56.50;;;;;;6216714;28;20034;-72
2022/09/18 02:58:20;;;;;;;0.10;0.10;;;21.30;56.50;;;;;;6216533;28;20575;-72
2022/09/18 03:01:23;;;;;;;0.43;0.20;;;21.30;56.50;;;;;;6216505;28;20105;-72
2022/09/18 03:04:25;;;;;;;0.63;0.20;;;21.30;56.50;;;;;;6221107;28;20068;-71
2022/09/18 03:07:26;;;;;;;0.20;0.20;;;21.30;56.60;;;;;;6216461;28;20034;-71
2022/09/18 03:10:27;;;;;;;0.47;0.20;;;21.30;56.50;;;;;;6216581;28;20033;-72
2022/09/18 03:13:27;;;;;;;0.28;0.20;;;21.30;56.50;;;;;;6222034;28;20527;-71
2022/09/18 03:16:28;;;;;;;0.30;0.30;;;21.30;56.60;;;;;;6216025;28;20037;-71
2022/09/18 03:19:28;;;;;;;0.40;0.20;;;21.30;56.60;;;;;;6216643;28;20154;-72
2022/09/18 03:22:29;;;;;;;0.17;0.17;;;21.30;56.50;;;;;;6216069;28;20018;-71
2022/09/18 03:25:30;;;;;;;0.60;0.10;;;21.30;56.50;;;;;;6222229;28;20041;-71
2022/09/18 03:28:31;;;;;;;3.92;0.20;;;21.30;56.60;;;;;;6215692;28;20030;-71
2022/09/18 03:31:32;;;;;;;0.38;0.20;;;21.30;56.60;;;;;;6216393;28;20018;-71
2022/09/18 03:34:32;;;;;;;0.15;0.10;;;21.30;56.70;;;;;;6215306;28;20162;-71
2022/09/18 03:37:33;;;;;;;0.40;0.35;;;21.30;56.60;;;;;;6216183;28;20026;-71
2022/09/18 03:40:34;;;;;;;1.02;0.20;;;21.30;56.60;;;;;;6220791;28;20030;-72
2022/09/18 03:43:34;;;;;;;0.10;0.10;;;21.30;56.70;;;;;;6214223;28;20454;-71
2022/09/18 03:46:35;;;;;;;0.43;0.20;;;21.30;56.60;;;;;;6215979;28;20022;-71
2022/09/18 03:49:35;;;;;;;0.70;0.30;;;21.30;56.60;;;;;;6216088;28;20037;-71
2022/09/18 03:52:36;;;;;;;0.30;0.20;;;21.30;56.60;;;;;;6215703;28;20021;-71
2022/09/18 03:55:37;;;;;;;0.40;0.30;;;21.30;56.60;;;;;;6215477;28;20549;-72
2022/09/18 03:58:38;;;;;;;0.63;0.22;;;21.30;56.60;;;;;;6220946;28;20045;-71
2022/09/18 04:01:38;;;;;;;0.80;0.22;;;21.30;56.70;;;;;;6215902;28;20480;-71
2022/09/18 04:04:39;;;;;;;0.22;0.20;;;21.30;56.50;;;;;;6214861;28;20068;-72
2022/09/18 04:07:39;;;;;;;0.70;0.20;;;21.30;56.50;;;;;;6215192;28;20504;-71
2022/09/18 04:10:40;;;;;;;0.63;0.20;;;21.30;56.60;;;;;;6215153;28;20167;-71
2022/09/18 04:13:41;;;;;;;0.65;0.22;;;21.30;56.60;;;;;;6215469;28;20022;-72
2022/09/18 04:16:41;;;;;;;0.25;0.22;;;21.30;56.60;;;;;;6215222;28;20026;-75
2022/09/18 04:19:42;;;;;;;0.45;0.22;;;21.30;56.60;;;;;;6214817;28;20106;-72
2022/09/18 04:22:42;;;;;;;0.73;0.20;;;21.30;56.50;;;;;;6215185;28;20421;-72
2022/09/18 04:25:43;;;;;;;0.43;0.20;;;21.30;56.60;;;;;;6214447;28;20026;-72
2022/09/18 04:28:43;;;;;;;0.30;0.20;;;21.30;56.50;;;;;;6214882;28;20086;-71
2022/09/18 04:31:44;;;;;;;1.45;0.40;;;21.30;56.60;;;;;;6214889;28;20022;-72
2022/09/18 04:34:45;;;;;;;1.10;0.30;;;21.30;57.30;;;;;;6213911;28;20026;-71
2022/09/18 04:37:45;;;;;;;0.40;0.30;;;21.30;56.70;;;;;;6214737;28;20581;-71
2022/09/18 04:40:53;;;;;;;0.95;0.30;;;21.30;56.60;;;;;;6220641;28;20148;-73
2022/09/18 04:43:54;;;;;;;1.17;0.30;;;21.30;56.60;;;;;;6214833;28;20094;-71
2022/09/18 04:46:54;;;;;;;0.85;0.50;;;21.30;56.70;;;;;;6220456;28;20034;-72
2022/09/18 04:49:55;;;;;;;1.27;0.20;;;21.30;56.60;;;;;;6214679;28;20430;-72
2022/09/18 04:52:56;;;;;;;1.00;0.32;;;21.30;56.60;;;;;;6214853;28;20118;-71
2022/09/18 04:55:56;;;;;;;0.20;0.10;;;21.30;56.70;;;;;;6214248;28;20026;-71
2022/09/18 04:58:58;;;;;;;0.88;0.40;;;21.30;57.40;;;;;;6213942;28;20033;-71
2022/09/18 05:01:59;;;;;;;2.10;0.30;;;21.30;56.70;;;;;;6206248;28;20038;-71
2022/09/18 05:05:00;;;;;;;0.47;0.30;;;21.30;56.70;;;;;;6211479;28;20056;-71
2022/09/18 05:08:02;;;;;;;1.25;0.30;;;21.30;56.60;;;;;;6214465;28;20030;-71
2022/09/18 05:11:03;;;;;;;0.55;0.30;;;21.30;56.70;;;;;;6214401;28;20294;-71
2022/09/18 05:14:04;;;;;;;0.68;0.30;;;21.20;56.50;;;;;;6219791;28;20063;-71
2022/09/18 05:17:05;;;;;;;1.02;0.30;;;21.30;56.70;;;;;;6214482;28;20107;-71
2022/09/18 05:20:07;;;;;;;1.00;0.30;;;21.30;56.60;;;;;;6220647;28;20033;-71
2022/09/18 05:23:08;;;;;;;0.52;0.30;;;21.30;56.70;;;;;;6214339;28;20030;-71
2022/09/18 05:26:08;;;;;;;0.40;0.30;;;21.30;56.70;;;;;;6213736;28;20045;-72
2022/09/18 05:29:09;;;;;;;1.13;0.30;;;21.30;57.30;;;;;;6214613;28;20033;-71
2022/09/18 05:32:10;;;;;;;0.57;0.30;;;21.30;56.60;;;;;;6217883;28;20026;-71
2022/09/18 05:35:10;;;;;;;0.30;0.20;;;21.30;56.70;;;;;;6213913;28;20253;-71
2022/09/18 05:38:11;;;;;;;0.63;0.22;;;21.30;56.70;;;;;;6213978;28;20030;-72
2022/09/18 05:41:12;;;;;;;0.68;0.40;;;21.30;56.60;;;;;;6214065;28;20065;-71
2022/09/18 05:44:12;;;;;;;0.50;0.30;;;21.30;56.70;;;;;;6213429;28;20041;-71
2022/09/18 05:47:13;;;;;;;0.95;0.30;;;21.30;56.60;;;;;;6217791;28;20030;-71
2022/09/18 05:50:14;;;;;;;0.38;0.20;;;21.30;56.60;;;;;;6217889;28;20094;-72
2022/09/18 05:53:16;;;;;;;1.23;0.38;;;21.30;56.60;;;;;;6218253;28;20026;-71
2022/09/18 05:56:17;;;;;;;0.63;0.20;;;21.20;56.50;;;;;;6217596;28;20037;-72
2022/09/18 05:59:17;;;;;;;1.05;0.40;;;21.20;56.50;;;;;;6223825;28;20034;-72
2022/09/18 06:02:18;;;;;;;0.70;0.40;;;21.20;56.50;;;;;;6224545;28;20037;-73
2022/09/18 06:05:19;;;;;;;0.50;0.20;;;21.20;56.60;;;;;;6217400;28;20026;-72
2022/09/18 06:08:21;;;;;;;0.93;0.20;;;21.20;56.50;;;;;;6217634;28;20040;-71
2022/09/18 06:11:22;;;;;;;0.55;0.28;;;21.20;56.60;;;;;;6217542;28;20392;-71
2022/09/18 06:14:23;;;;;;;1.00;0.45;;;21.30;56.60;;;;;;6217208;28;20014;-72
2022/09/18 06:17:23;;;;;;;0.35;0.30;;;21.20;56.60;;;;;;6225447;28;20058;-72
2022/09/18 06:20:24;;;;;;;0.50;0.35;;;21.20;56.60;;;;;;6217468;28;20030;-72
2022/09/18 06:23:27;;;;;;;0.52;0.40;;;21.20;56.60;;;;;;6218327;28;20491;-71
2022/09/18 06:26:27;;;;;;;0.65;0.30;;;21.20;56.50;;;;;;6223498;28;20079;-72
2022/09/18 06:29:28;;;;;;;1.05;0.30;;;21.20;56.50;;;;;;6217832;28;20014;-72
2022/09/18 06:32:29;;;;;;;0.82;0.30;;;21.30;56.70;;;;;;6217889;28;20026;-72
2022/09/18 06:35:31;;;;;;;0.43;0.20;;;21.30;56.60;;;;;;6217115;28;20101;-71
2022/09/18 06:38:32;;;;;;;0.80;0.40;;;21.30;56.60;;;;;;6217123;28;20637;-71
2022/09/18 06:41:33;;;;;;;0.55;0.30;;;21.20;56.50;;;;;;6216542;28;20022;-71
2022/09/18 06:44:33;;;;;;;1.27;0.45;;;21.20;56.50;;;;;;6216551;28;20400;-71
2022/09/18 06:47:34;;;;;;;0.85;0.40;;;21.20;56.50;;;;;;6216945;28;20036;-71
2022/09/18 06:50:34;;;;;;;1.00;0.40;;;21.20;56.60;;;;;;6216660;28;20101;-72
2022/09/18 06:53:35;;;;;;;0.25;0.25;;;21.20;56.50;;;;;;6217038;28;20025;-71
2022/09/18 06:56:36;;;;;;;0.80;0.22;;;21.20;56.70;;;;;;6216302;28;20254;-71
2022/09/18 06:59:37;;;;;;;0.60;0.20;;;21.30;56.60;;;;;;6221406;28;20286;-71
2022/09/18 07:02:38;;;;;;;0.45;0.30;;;21.30;56.60;;;;;;6216388;28;20032;-71
2022/09/18 07:05:41;;;;;;;0.70;0.47;;;21.30;56.70;;;;;;6216056;28;20022;-71
2022/09/18 07:08:42;;;;;;;1.42;0.40;;;21.20;56.40;;;;;;6216264;28;20047;-71
2022/09/18 07:11:43;;;;;;;3.65;0.40;;;21.20;56.30;;;;;;6216257;28;20030;-71
2022/09/18 07:14:43;;;;;;;0.47;0.30;;;21.30;56.40;;;;;;6219347;28;20037;-71
2022/09/18 07:17:45;;;;;;;1.00;0.28;;;21.20;56.40;;;;;;6216255;28;20038;-71
2022/09/18 07:20:45;;;;;;;1.15;0.40;;;21.20;56.30;;;;;;6216181;28;20276;-71
2022/09/18 07:23:46;;;;;;;1.08;0.40;;;21.20;56.30;;;;;;6215382;28;20052;-71
2022/09/18 07:26:46;;;;;;;0.82;0.30;;;21.20;56.30;;;;;;6215711;28;20054;-71
2022/09/18 07:29:47;;;;;;;1.15;0.57;;;21.20;56.30;;;;;;6216813;28;20022;-71
2022/09/18 07:32:48;;;;;;;1.30;0.32;;;21.30;56.40;;;;;;6220815;28;20022;-71
2022/09/18 07:35:48;;;;;;;1.52;0.32;;;21.20;56.30;;;;;;6215727;28;20079;-71
2022/09/18 07:38:50;;;;;;;1.15;0.40;;;21.30;56.40;;;;;;6215972;28;20041;-71
2022/09/18 07:41:50;;;;;;;2.38;0.73;;;21.20;57.00;;;;;;6215814;28;20392;-71
2022/09/18 07:44:52;;;;;;;0.95;0.50;;;21.20;56.30;;;;;;6215836;28;20073;-71
2022/09/18 07:47:53;;;;;;;1.00;0.50;;;21.20;56.30;;;;;;6215354;28;20052;-71
2022/09/18 07:50:57;;;;;;;0.93;0.40;;;21.20;56.30;;;;;;6215763;28;20030;-71
2022/09/18 07:53:57;;;;;;;3.90;0.95;;;21.20;56.30;;;;;;6222068;28;20044;-72
2022/09/18 07:56:59;;;;;;;1.23;0.57;;;21.20;56.30;;;;;;6215650;28;20014;-71
2022/09/18 08:00:00;;;;;;;1.17;0.47;;;21.20;56.30;;;;;;6221702;28;20477;-71
2022/09/18 08:03:02;;;;;;;0.73;0.30;;;21.20;56.20;;;;;;6215185;28;20022;-71
2022/09/18 08:06:03;;;;;;;1.40;0.30;;;21.20;56.30;;;;;;6215321;28;20036;-71
2022/09/18 08:09:03;;;;;;;1.55;0.45;;;21.20;56.20;;;;;;6214535;28;20025;-71
2022/09/18 08:12:04;;;;;;;1.58;0.50;;;21.20;56.30;;;;;;6215288;28;20388;-71
2022/09/18 08:15:05;;;;;;;0.80;0.25;;;21.20;56.20;;;;;;6215161;28;20026;-71
2022/09/18 08:18:07;;;;;;;2.08;0.50;;;21.20;56.20;;;;;;6214914;28;20484;-71
2022/09/18 08:21:08;;;;;;;1.23;0.45;;;21.20;56.20;;;;;;6214934;28;20022;-71
2022/09/18 08:24:09;;;;;;;1.23;0.40;;;21.20;56.30;;;;;;6201856;28;20401;-71
2022/09/18 08:27:09;;;;;;;1.67;0.50;;;21.20;56.20;;;;;;6228989;28;20031;-71
2022/09/18 08:30:13;;;;;;;3.65;0.60;;;21.20;56.20;;;;;;6255246;28;20018;-71
2022/09/18 08:33:13;;;;;;;0.70;0.40;;;21.20;56.30;;;;;;6207689;28;20033;-71
2022/09/18 08:36:14;;;;;;;1.77;0.50;;;21.20;56.30;;;;;;6207414;28;20471;-71
2022/09/18 08:39:15;;;;;;;1.20;0.30;;;21.20;56.30;;;;;;6212771;28;20041;-71
2022/09/18 08:42:21;;;;;;;1.25;0.40;;;21.20;56.20;;;;;;6220771;28;20033;-71
2022/09/18 08:45:45;;;;;;;1.85;0.60;;;21.20;56.10;;;;;;6223912;28;20458;-71
2022/09/18 08:49:00;;;;;;;1.77;0.50;;;21.20;56.20;;;;;;6217990;28;20029;-72
2022/09/18 08:52:15;;;;;;;1.55;0.57;;;21.20;56.10;;;;;;6196771;28;20131;-71
2022/09/18 08:55:24;;;;;;;3.03;0.55;;;21.20;56.10;;;;;;6212384;28;20019;-71
2022/09/18 08:58:34;;;;;;;1.55;0.30;;;21.20;56.20;;;;;;6212422;28;20604;-71
2022/09/18 09:01:46;;;;;;;2.30;0.40;;;21.30;56.60;;;;;;6212533;28;20098;-72
2022/09/18 09:04:47;;;;;;;3.47;0.63;;;21.30;56.50;;;;;;6212538;28;20071;-70
2022/09/18 09:08:05;;;;;;;5.13;0.70;;;21.30;56.20;;;;;;6223323;28;20030;-71
2022/09/18 09:11:18;;;;;;;3.97;0.60;;;21.20;55.90;;;;;;6212525;28;20037;-71
2022/09/18 09:14:46;;;;;;;1.85;0.60;;;21.30;56.10;;;;;;6211892;28;20468;-71
2022/09/18 09:17:57;;;;;;;2.90;0.70;;;21.30;56.00;;;;;;6285869;28;20132;-71
2022/09/18 09:21:16;;;;;;;2.95;0.43;;;21.30;56.00;;;;;;6287902;28;20064;-71
2022/09/18 09:24:40;;;;;;;5.93;0.63;;;21.30;56.20;;;;;;6291076;28;20064;-72
2022/09/18 09:27:48;;;;;;;2.22;0.60;;;21.30;56.80;;;;;;6285889;28;20039;-71
2022/09/18 09:30:55;;;;;;;2.33;0.50;;;21.30;57.10;;;;;;6291066;28;20056;-71
2022/09/18 09:34:05;;;;;;;6.00;0.68;;;21.30;56.80;;;;;;6291216;28;20043;-71
2022/09/18 09:37:14;;;;;;;3.70;0.95;;;21.30;56.10;;;;;;6290846;28;20408;-71
2022/09/18 09:40:32;;;;;;;6.45;0.82;;;21.30;56.20;;;;;;6290748;28;20028;-71
2022/09/18 09:43:43;;;;;;;2.88;0.73;;;21.20;55.90;;;;;;6284317;28;20045;-71
2022/09/18 09:46:46;;;;;;;2.17;0.50;;;21.30;56.00;;;;;;6292122;28;20570;-70
2022/09/18 09:50:01;;;;;;;5.60;0.50;;;21.20;56.20;;;;;;6223960;28;20038;-70
2022/09/18 09:53:08;;;;;;;1.27;0.68;;;21.30;56.10;;;;;;6217758;28;20054;-71
2022/09/18 09:56:27;;;;;;;1.98;0.50;;;21.20;56.10;;;;;;6221892;28;20515;-71
2022/09/18 09:59:45;;;;;;;2.15;0.50;;;21.30;56.10;;;;;;6217621;28;20155;-71
2022/09/18 10:03:09;;;;;;;2.03;0.52;;;21.20;56.00;;;;;;6217563;28;20025;-70
2022/09/18 10:06:28;;;;;;;2.30;0.60;;;21.20;55.90;;;;;;6217596;28;20150;-71
2022/09/18 10:10:08;;;;;;;3.28;0.60;;;21.30;56.10;;;;;;6217257;28;20030;-70
2022/09/18 10:13:20;;;;;;;2.10;0.60;;;21.20;56.00;;;;;;6217047;28;20536;-70
2022/09/18 10:16:33;;;;;;;2.78;0.50;;;21.20;56.00;;;;;;6217569;28;20026;-70
2022/09/18 10:19:38;;;;;;;1.45;0.35;;;21.20;56.10;;;;;;6216955;28;20022;-70
2022/09/18 10:22:39;;;;;;;2.83;0.60;;;21.20;56.10;;;;;;6217213;28;20029;-70
2022/09/18 10:25:49;;;;;;;3.72;0.57;;;21.20;56.10;;;;;;6207350;28;20090;-70
2022/09/18 10:28:50;;;;;;;2.03;0.60;;;21.20;56.10;;;;;;6226398;28;20022;-71
2022/09/18 10:31:57;;;;;;;2.13;0.52;;;21.20;56.40;;;;;;6214209;28;20041;-71
2022/09/18 10:34:58;;;;;;;2.08;0.60;;;21.20;56.20;;;;;;6215053;28;20040;-70
2022/09/18 10:37:58;;;;;;;5.20;0.60;;;21.20;55.90;;;;;;6213590;28;20030;-69
2022/09/18 10:41:20;;;;;;;1.23;0.40;;;21.20;55.90;;;;;;6214722;28;20083;-71
2022/09/18 10:44:33;;;;;;;1.65;0.80;;;21.20;56.00;;;;;;6214978;28;20038;-70
2022/09/18 10:47:35;;;;;;;3.20;0.60;;;21.20;56.00;;;;;;6215010;28;20026;-70
2022/09/18 10:50:36;;;;;;;0.88;0.30;;;21.20;55.90;;;;;;6215457;28;20137;-70
2022/09/18 10:53:37;;;;;;;1.05;0.57;;;21.20;55.90;;;;;;6215786;28;20460;-70
2022/09/18 10:56:38;;;;;;;1.48;0.40;;;21.20;55.80;;;;;;6213998;28;20566;-71
2022/09/18 10:59:38;;;;;;;3.95;0.45;;;21.20;57.10;;;;;;6216907;28;20030;-70
2022/09/18 11:02:45;;;;;;;2.38;0.60;;;21.30;56.50;;;;;;6216615;28;20396;-70
2022/09/18 11:05:53;;;;;;;1.95;0.50;;;21.30;56.40;;;;;;6223337;28;20440;-70
2022/09/18 11:08:58;;;;;;;3.97;0.60;;;21.30;56.30;;;;;;6216460;28;20029;-70
2022/09/18 11:11:59;;;;;;;;;;;21.30;55.90;;;;;;6217398;28;20022;-70
2022/09/18 11:15:06;;;;;;;2.50;0.60;;;21.30;56.00;;;;;;6217079;28;19912;-71
2022/09/18 11:18:14;;;;;;;2.75;0.80;;;21.30;56.00;;;;;;6215896;28;20026;-70
2022/09/18 11:21:15;;;;;;;1.58;0.47;;;21.30;56.10;;;;;;6206369;28;20047;-70
2022/09/18 11:24:31;;;;;;;1.65;0.43;;;21.30;56.20;;;;;;6213208;28;20612;-70
2022/09/18 11:27:51;;;;;;;3.15;0.55;;;21.30;56.60;;;;;;6216118;28;20030;-70
2022/09/18 11:31:01;;;;;;;3.95;0.50;;;21.30;56.50;;;;;;6216305;28;20022;-70
2022/09/18 11:34:03;;;;;;;4.32;0.73;;;21.30;56.60;;;;;;6216371;28;20018;-70
2022/09/18 11:37:12;;;;;;;2.90;0.70;;;21.20;56.70;;;;;;6216085;28;20496;-71
2022/09/18 11:40:29;;;;;;;3.38;0.50;;;21.20;56.70;;;;;;6216343;28;20105;-70
2022/09/18 11:43:34;;;;;;;2.78;0.60;;;21.20;56.80;;;;;;6220535;28;20053;-70
2022/09/18 11:46:45;;;;;;;2.90;0.70;;;21.20;56.60;;;;;;6216073;28;20025;-70
2022/09/18 11:50:00;;;;;;;4.47;0.70;;;21.20;56.60;;;;;;6214741;28;20034;-70
2022/09/18 11:53:13;;;;;;;0.88;0.43;;;21.20;56.60;;;;;;6216071;28;20030;-70
2022/09/18 11:56:28;;;;;;;2.22;0.60;;;21.20;56.80;;;;;;6215964;28;20030;-70
2022/09/18 11:59:41;;;;;;;0.93;0.50;;;21.20;57.50;;;;;;6215860;28;20028;-70
2022/09/18 12:02:56;;;;;;;1.77;0.75;;;21.20;57.80;;;;;;6215821;28;20629;-70
2022/09/18 12:06:31;;;;;;;5.53;0.60;;;21.20;57.20;;;;;;6214436;28;20026;-70
2022/09/18 12:09:55;;;;;;;4.63;0.57;;;21.20;57.30;;;;;;6217482;28;20042;-71
2022/09/18 12:13:17;;;;;;;8.95;0.47;;;21.30;58.10;;;;;;6215379;28;20026;-71
2022/09/18 12:16:28;;;;;;;19.50;0.90;;;21.30;57.80;;;;;;6215452;28;20101;-69
2022/09/18 12:19:38;;;;;;;16.80;1.00;;;21.40;57.90;;;;;;6215123;28;20030;-70
2022/09/18 12:22:47;;;;;;;5.80;0.77;;;21.40;57.60;;;;;;6206137;28;20034;-69
2022/09/18 12:26:12;;;;;;;15.23;0.98;;;21.40;57.80;;;;;;6241725;28;20028;-70
2022/09/18 12:29:26;;;;;;;;;;;21.40;58.00;;;;;;6215539;28;20032;-69
2022/09/18 12:32:46;;;;;;;4.32;0.50;;;21.40;58.20;;;;;;6215256;28;19924;-69
2022/09/18 12:36:33;;;;;;;11.05;1.27;;;21.40;57.80;;;;;;6214835;28;20429;-69
2022/09/18 12:40:05;;;;;;;3.45;0.50;;;21.30;57.50;;;;;;6268353;28;20446;-69
2022/09/18 12:43:34;;;;;;;3.60;0.60;;;21.30;57.60;;;;;;6190374;28;20046;-68
2022/09/18 12:47:10;;;;;;;2.13;0.57;;;21.30;57.40;;;;;;6216109;28;20038;-68
2022/09/18 12:50:19;;;;;;;3.95;1.02;;;21.30;57.40;;;;;;6247584;28;20102;-69
2022/09/18 12:53:50;;;;;;;9.75;0.50;;;21.30;57.80;;;;;;6215154;28;20022;-69
2022/09/18 12:57:21;;;;;;;4.53;0.47;;;21.30;57.70;;;;;;6201696;28;20023;-69
2022/09/18 13:00:22;;;;;;;3.85;0.95;;;21.30;57.80;;;;;;6213631;28;20022;-69
2022/09/18 13:03:43;;;;;;;2.53;0.45;;;21.30;57.90;;;;;;6214910;28;20124;-69
2022/09/18 13:07:00;;;;;;;1.80;0.60;;;21.30;57.60;;;;;;6214641;28;20132;-69
2022/09/18 13:10:30;;;;;;;7.60;0.88;;;21.30;57.30;;;;;;6214534;28;20064;-69
2022/09/18 13:13:40;;;;;;;1.17;0.43;;;21.30;57.50;;;;;;6190395;28;20022;-69
2022/09/18 13:16:49;;;;;;;2.50;0.52;;;21.30;57.40;;;;;;6216011;28;20079;-69
2022/09/18 13:20:19;;;;;;;1.83;0.47;;;21.30;57.50;;;;;;6214584;28;20033;-69
2022/09/18 13:23:25;;;;;;;3.17;0.77;;;21.30;57.60;;;;;;6217620;28;20149;-69
2022/09/18 13:26:29;;;;;;;2.00;0.50;;;21.30;57.70;;;;;;6210074;28;20025;-69
2022/09/18 13:29:51;;;;;;;3.40;0.85;;;21.30;57.30;;;;;;6214439;28;20485;-69
2022/09/18 13:32:53;;;;;;;2.05;0.55;;;21.30;57.40;;;;;;6210541;28;20026;-69
2022/09/18 13:35:56;;;;;;;5.60;0.63;;;21.30;58.20;;;;;;6214249;28;20117;-70
2022/09/18 13:39:04;;;;;;;23.85;2.83;;;21.40;57.80;;;;;;6214437;28;20079;-70
2022/09/18 13:42:05;;;;;;;5.25;0.60;;;21.50;57.00;;;;;;6213924;28;20025;-70
2022/09/18 13:45:26;;;;;;;5.55;0.50;;;21.50;57.40;;;;;;6213960;28;20405;-70
2022/09/18 13:48:28;;;;;;;1.42;0.50;;;21.50;57.10;;;;;;6214028;28;20033;-70
2022/09/18 13:51:35;;;;;;;1.85;0.47;;;21.50;56.90;;;;;;6214017;28;20480;-70
2022/09/18 13:54:35;;;;;;;1.08;0.30;;;21.50;56.70;;;;;;6212775;28;20548;-70
2022/09/18 13:57:36;;;;;;;1.95;0.40;;;21.50;56.80;;;;;;6213840;28;20026;-71
2022/09/18 14:00:39;;;;;;;1.33;0.30;;;21.40;56.90;;;;;;6210126;28;20505;-71
2022/09/18 14:03:40;;;;;;;1.17;0.32;;;21.40;57.40;;;;;;6208981;28;20492;-71
2022/09/18 14:06:42;;;;;;;3.55;0.50;;;21.50;57.10;;;;;;6220149;28;20029;-71
2022/09/18 14:09:58;;;;;;;1.00;0.30;;;21.50;57.00;;;;;;6218211;28;20570;-71
2022/09/18 14:13:17;;;;;;;2.17;0.52;;;21.50;56.80;;;;;;6218290;28;20026;-71
2022/09/18 14:16:17;;;;;;;1.23;0.55;;;21.50;56.70;;;;;;6217464;28;20029;-71
2022/09/18 14:19:30;;;;;;;3.17;0.52;;;21.50;56.70;;;;;;6217552;28;20034;-71
2022/09/18 14:22:33;;;;;;;1.05;0.32;;;21.50;56.80;;;;;;6204739;28;20029;-72
2022/09/18 14:25:45;;;;;;;2.50;0.55;;;21.50;56.70;;;;;;6209305;28;20116;-70
2022/09/18 14:28:47;;;;;;;0.95;0.47;;;21.50;56.70;;;;;;6210384;28;20075;-71
2022/09/18 14:31:50;;;;;;;0.52;0.32;;;21.50;56.90;;;;;;6221853;28;20079;-70
2022/09/18 14:35:13;;;;;;;1.55;0.43;;;21.50;56.80;;;;;;6217655;28;20036;-71
2022/09/18 14:38:16;;;;;;;1.65;0.40;;;21.50;56.90;;;;;;6220151;28;20034;-71
2022/09/18 14:41:22;;;;;;;11.65;1.02;;;21.40;57.00;;;;;;6212121;28;20045;-72
2022/09/18 14:44:24;;;;;;;47.97;2.70;;;21.40;56.80;;;;;;6208788;28;20121;-71
2022/09/18 14:47:26;;;;;;;11.48;1.30;;;21.40;56.90;;;;;;6206773;28;20021;-71
2022/09/18 14:50:32;;;;;;;17.17;1.50;;;21.40;56.80;;;;;;6217088;28;20030;-71
2022/09/18 14:53:42;;;;;;;8.57;1.10;;;21.40;56.80;;;;;;6201180;28;20439;-71
2022/09/18 14:56:43;;;;;;;8.23;1.20;;;21.40;56.80;;;;;;6216877;28;20201;-70
2022/09/18 14:59:50;;;;;;;9.65;1.02;;;21.40;56.90;;;;;;6217234;28;20647;-71
2022/09/18 15:02:56;;;;;;;10.27;0.93;;;21.40;57.00;;;;;;6216960;28;20030;-71
2022/09/18 15:06:25;;;;;;;6.15;0.82;;;21.40;57.10;;;;;;6216915;28;20053;-71
2022/09/18 15:09:29;;;;;;;9.98;0.90;;;21.40;57.20;;;;;;6227121;28;20050;-71
2022/09/18 15:12:33;;;;;;;8.57;0.90;;;21.40;56.90;;;;;;6216403;28;20392;-70
2022/09/18 15:15:39;;;;;;;2.97;0.70;;;21.40;57.00;;;;;;6216813;28;20018;-70
2022/09/18 15:18:41;;;;;;;2.38;0.77;;;21.40;57.10;;;;;;6215148;28;20021;-72
2022/09/18 15:21:46;;;;;;;4.85;0.80;;;21.40;57.10;;;;;;6209681;28;20030;-71
2022/09/18 15:24:46;;;;;;;2.33;0.73;;;21.40;57.10;;;;;;6230012;28;20435;-72
2022/09/18 15:27:48;;;;;;;3.60;0.57;;;21.40;57.30;;;;;;6215721;28;20037;-72
2022/09/18 15:30:56;;;;;;;2.33;0.68;;;21.30;57.30;;;;;;6216051;28;20033;-71
2022/09/18 15:34:19;;;;;;;2.67;0.80;;;21.40;58.10;;;;;;6216329;28;20063;-71
2022/09/18 15:37:22;;;;;;;1.58;0.50;;;21.40;57.40;;;;;;6215622;28;20101;-72
2022/09/18 15:40:33;;;;;;;1.45;0.60;;;21.40;57.50;;;;;;6215326;28;20026;-72
2022/09/18 15:43:39;;;;;;;15.88;1.20;;;21.40;57.30;;;;;;6215185;28;20049;-72
2022/09/18 15:46:40;;;;;;;15.30;0.95;;;21.40;57.20;;;;;;6214819;28;20132;-71
2022/09/18 15:49:42;;;;;;;4.53;0.90;;;21.40;57.10;;;;;;6211396;28;20046;-72
2022/09/18 15:52:47;;;;;;;13.85;1.17;;;21.40;57.40;;;;;;6216443;28;20500;-71
2022/09/18 15:55:56;;;;;;;5.38;0.70;;;21.40;57.30;;;;;;6213077;28;20090;-72
2022/09/18 15:58:59;;;;;;;40.65;6.00;;;21.40;57.50;;;;;;6212265;28;20030;-72
2022/09/18 16:02:06;;;;;;;86.32;6.38;;;21.40;57.50;;;;;;6213866;28;20527;-72
2022/09/18 16:05:07;;;;;;;200.77;17.80;;;21.40;57.50;;;;;;6213617;28;20078;-72
2022/09/18 16:08:19;;;;;;;152.88;14.20;;;21.40;57.40;;;;;;6213298;28;20041;-72
2022/09/18 16:11:40;;;;;;;85.10;7.95;;;21.40;57.50;;;;;;6194065;28;20029;-72
2022/09/18 16:14:44;;;;;;;91.70;8.02;;;21.40;57.50;;;;;;6213765;28;20024;-72